createdAt,value
2023-02-24T00:00:31.995Z,17.20
2023-02-24T00:02:34.314Z,20.37
2023-02-24T00:04:39.616Z,18.70
2023-02-24T00:06:43.799Z,20.27
2023-02-24T00:08:45.994Z,19.87
2023-02-24T00:10:48.406Z,21.93
2023-02-24T00:12:50.614Z,20.33
2023-02-24T00:14:52.870Z,19.70
2023-02-24T00:16:55.287Z,18.90
2023-02-24T00:18:57.548Z,21.17
2023-02-24T00:21:13.612Z,19.33
2023-02-24T00:23:18.392Z,22.83
2023-02-24T00:25:20.581Z,22.30
2023-02-24T00:27:22.729Z,22.03
2023-02-24T00:29:25.574Z,21.53
2023-02-24T00:31:31.320Z,23.40
2023-02-24T00:33:34.458Z,20.70
2023-02-24T00:35:36.722Z,22.00
2023-02-24T00:37:38.913Z,21.23
2023-02-24T00:39:42.167Z,22.53
2023-02-24T00:41:45.459Z,20.57
2023-02-24T00:43:47.545Z,23.00
2023-02-24T00:45:51.604Z,22.27
2023-02-24T00:47:57.559Z,21.40
2023-02-24T00:49:59.936Z,25.13
2023-02-24T00:52:06.572Z,21.93
2023-02-24T00:54:15.049Z,21.93
2023-02-24T00:56:18.066Z,25.40
2023-02-24T00:58:20.558Z,22.90
2023-02-24T01:00:23.492Z,19.60
2023-02-24T01:02:25.922Z,20.90
2023-02-24T01:04:29.405Z,19.13
2023-02-24T01:06:32.038Z,19.10
2023-02-24T01:08:36.641Z,17.87
2023-02-24T01:10:38.770Z,15.83
2023-02-24T01:12:50.033Z,15.30
2023-02-24T01:14:52.841Z,16.67
2023-02-24T01:16:55.586Z,13.87
2023-02-24T01:18:57.712Z,13.43
2023-02-24T01:20:59.917Z,10.90
2023-02-24T01:23:03.483Z,7.83
2023-02-24T01:25:08.029Z,6.97
2023-02-24T01:27:12.442Z,5.33
2023-02-24T01:29:15.108Z,3.87
2023-02-24T01:31:18.600Z,3.43
2023-02-24T01:33:21.845Z,3.60
2023-02-24T01:35:25.779Z,4.00
2023-02-24T01:37:28.839Z,3.80
2023-02-24T01:39:30.960Z,3.20
2023-02-24T01:41:33.211Z,4.17
2023-02-24T01:43:58.760Z,4.00
2023-02-24T01:46:02.314Z,4.20
2023-02-24T01:48:07.288Z,4.57
2023-02-24T01:50:10.399Z,3.80
2023-02-24T01:52:25.509Z,4.80
2023-02-24T01:54:32.439Z,4.40
2023-02-24T01:56:34.746Z,4.47
2023-02-24T01:58:37.310Z,4.40
2023-02-24T02:00:45.256Z,4.27
2023-02-24T02:02:52.889Z,4.30
2023-02-24T02:05:03.875Z,4.53
2023-02-24T02:07:10.006Z,4.33
2023-02-24T02:09:15.289Z,4.20
2023-02-24T02:11:20.608Z,3.97
2023-02-24T02:13:23.064Z,3.20
2023-02-24T02:15:25.315Z,3.57
2023-02-24T02:17:32.790Z,4.67
2023-02-24T02:19:59.891Z,3.63
2023-02-24T02:22:06.898Z,4.57
2023-02-24T02:24:35.365Z,3.43
2023-02-24T02:26:43.327Z,3.90
2023-02-24T02:29:09.987Z,3.63
2023-02-24T02:31:35.403Z,4.03
2023-02-24T02:34:15.548Z,3.10
2023-02-24T02:36:36.185Z,2.80
2023-02-24T02:38:57.517Z,4.07
2023-02-24T02:41:22.519Z,3.60
2023-02-24T02:43:37.395Z,3.47
2023-02-24T02:45:55.970Z,4.60
2023-02-24T02:48:26.970Z,3.33
2023-02-24T02:51:04.293Z,2.70
2023-02-24T02:53:42.231Z,3.07
2023-02-24T02:55:48.346Z,4.60
2023-02-24T02:57:53.509Z,2.90
2023-02-24T02:59:59.789Z,3.60
2023-02-24T03:02:14.753Z,5.27
2023-02-24T03:04:22.921Z,3.53
2023-02-24T03:06:30.002Z,3.47
2023-02-24T03:08:37.303Z,3.33
2023-02-24T03:10:40.411Z,3.30
2023-02-24T03:12:43.317Z,3.33
2023-02-24T03:14:51.201Z,2.90
2023-02-24T03:16:54.471Z,3.97
2023-02-24T03:19:01.025Z,3.00
2023-02-24T03:21:08.620Z,3.20
2023-02-24T03:23:19.028Z,3.33
2023-02-24T03:25:30.832Z,3.17
2023-02-24T03:27:42.366Z,2.90
2023-02-24T03:30:00.892Z,4.00
2023-02-24T03:32:13.378Z,3.67
2023-02-24T03:34:24.149Z,3.77
2023-02-24T03:36:28.059Z,3.13
2023-02-24T03:38:31.354Z,3.23
2023-02-24T03:40:36.074Z,3.10
2023-02-24T03:42:43.297Z,2.90
2023-02-24T03:44:45.962Z,3.17
2023-02-24T03:46:48.680Z,3.00
2023-02-24T03:48:55.769Z,3.40
2023-02-24T03:50:59.435Z,2.73
2023-02-24T03:53:34.029Z,3.37
2023-02-24T03:56:00.344Z,4.07
2023-02-24T03:58:08.410Z,3.33
2023-02-24T04:00:35.108Z,3.90
2023-02-24T04:02:38.750Z,3.93
2023-02-24T04:04:48.670Z,3.30
2023-02-24T04:07:15.581Z,3.47
2023-02-24T04:09:20.815Z,3.27
2023-02-24T04:11:37.500Z,3.30
2023-02-24T04:13:49.978Z,3.87
2023-02-24T04:16:02.780Z,3.50
2023-02-24T04:18:09.811Z,3.70
2023-02-24T04:20:16.574Z,3.10
2023-02-24T04:22:24.976Z,3.67
2023-02-24T04:24:30.994Z,3.70
2023-02-24T04:26:36.488Z,5.10
2023-02-24T04:28:41.073Z,2.90
2023-02-24T04:30:46.175Z,3.80
2023-02-24T04:32:49.684Z,3.80
2023-02-24T04:34:52.842Z,4.00
2023-02-24T04:36:55.406Z,3.80
2023-02-24T04:38:58.081Z,3.60
2023-02-24T04:41:01.538Z,3.80
2023-02-24T04:43:03.795Z,3.60
2023-02-24T04:45:10.086Z,4.20
2023-02-24T04:47:12.487Z,3.53
2023-02-24T04:49:14.572Z,4.03
2023-02-24T04:51:16.771Z,3.80
2023-02-24T04:53:18.892Z,3.23
2023-02-24T04:55:23.227Z,2.90
2023-02-24T04:57:25.404Z,4.20
2023-02-24T04:59:28.053Z,3.90
2023-02-24T05:01:31.356Z,3.10
2023-02-24T05:03:33.598Z,3.73
2023-02-24T05:05:35.787Z,4.50
2023-02-24T05:07:38.016Z,4.57
2023-02-24T05:09:41.123Z,4.10
2023-02-24T05:11:45.581Z,4.63
2023-02-24T05:13:47.720Z,5.13
2023-02-24T05:15:49.893Z,3.50
2023-02-24T05:17:53.300Z,3.23
2023-02-24T05:20:14.143Z,3.30
2023-02-24T05:22:17.587Z,3.83
2023-02-24T05:24:19.863Z,4.27
2023-02-24T05:26:25.610Z,3.60
2023-02-24T05:28:31.540Z,5.60
2023-02-24T05:30:33.930Z,3.73
2023-02-24T05:32:36.826Z,4.50
2023-02-24T05:34:39.172Z,5.53
2023-02-24T05:36:41.302Z,6.30
2023-02-24T05:38:44.746Z,4.23
2023-02-24T05:40:50.189Z,3.93
2023-02-24T05:42:52.338Z,4.60
2023-02-24T05:44:54.468Z,3.83
2023-02-24T05:47:00.430Z,4.83
2023-02-24T05:49:09.236Z,4.27
2023-02-24T05:51:12.627Z,4.07
2023-02-24T05:53:15.623Z,2.73
2023-02-24T05:55:17.958Z,4.33
2023-02-24T05:57:32.922Z,4.40
2023-02-24T05:59:35.294Z,3.80
2023-02-24T06:01:41.581Z,4.10
2023-02-24T06:03:48.083Z,3.53
2023-02-24T06:05:54.054Z,3.73
2023-02-24T06:08:04.345Z,4.10
2023-02-24T06:10:10.310Z,4.20
2023-02-24T06:12:14.701Z,3.50
2023-02-24T06:14:17.228Z,3.67
2023-02-24T06:16:20.024Z,4.50
2023-02-24T06:18:22.226Z,6.30
2023-02-24T06:20:26.798Z,4.87
2023-02-24T06:22:29.195Z,4.17
2023-02-24T06:24:33.524Z,3.87
2023-02-24T06:26:36.913Z,4.60
2023-02-24T06:28:43.175Z,4.83
2023-02-24T06:30:45.675Z,5.17
2023-02-24T06:32:48.632Z,4.93
2023-02-24T06:34:52.069Z,7.83
2023-02-24T06:36:54.324Z,4.27
2023-02-24T06:38:56.408Z,5.20
2023-02-24T06:41:00.244Z,5.20
2023-02-24T06:43:02.852Z,5.50
2023-02-24T06:45:07.743Z,6.57
2023-02-24T06:47:13.313Z,5.87
2023-02-24T06:49:15.505Z,5.27
2023-02-24T06:51:17.663Z,5.87
2023-02-24T06:53:19.734Z,5.23
2023-02-24T06:55:27.699Z,5.27
2023-02-24T06:57:32.841Z,5.03
2023-02-24T06:59:34.982Z,4.97
2023-02-24T07:01:45.070Z,5.20
2023-02-24T07:04:17.571Z,6.40
2023-02-24T07:06:24.162Z,5.70
2023-02-24T07:08:27.416Z,5.03
2023-02-24T07:10:29.674Z,6.27
2023-02-24T07:12:31.817Z,6.80
2023-02-24T07:14:34.016Z,5.60
2023-02-24T07:16:36.309Z,6.50
2023-02-24T07:18:41.770Z,4.90
2023-02-24T07:20:46.205Z,5.30
2023-02-24T07:22:48.361Z,5.17
2023-02-24T07:24:50.465Z,5.47
2023-02-24T07:26:57.628Z,4.20
2023-02-24T07:29:04.266Z,4.73
2023-02-24T07:31:08.621Z,4.97
2023-02-24T07:33:10.803Z,4.60
2023-02-24T07:35:14.594Z,3.80
2023-02-24T07:37:16.846Z,4.30
2023-02-24T07:39:19.809Z,5.60
2023-02-24T07:41:23.567Z,4.43
2023-02-24T07:43:27.340Z,4.27
2023-02-24T07:45:29.688Z,6.00
2023-02-24T07:47:32.803Z,5.27
2023-02-24T07:49:35.440Z,8.00
2023-02-24T07:51:37.610Z,5.83
2023-02-24T07:53:40.355Z,5.63
2023-02-24T07:55:42.401Z,4.60
2023-02-24T07:57:48.341Z,5.10
2023-02-24T07:59:50.456Z,5.47
2023-02-24T08:01:55.758Z,4.13
2023-02-24T08:04:01.427Z,5.10
2023-02-24T08:06:15.502Z,4.53
2023-02-24T08:08:21.082Z,5.70
2023-02-24T08:10:25.926Z,5.20
2023-02-24T08:12:29.713Z,5.43
2023-02-24T08:14:35.137Z,5.87
2023-02-24T08:16:40.394Z,4.60
2023-02-24T08:18:49.003Z,5.60
2023-02-24T08:20:54.062Z,6.67
2023-02-24T08:22:56.463Z,6.20
2023-02-24T08:25:06.315Z,4.83
2023-02-24T08:27:09.327Z,4.33
2023-02-24T08:29:12.399Z,4.63
2023-02-24T08:31:14.609Z,4.80
2023-02-24T08:33:21.323Z,3.97
2023-02-24T08:35:31.828Z,5.57
2023-02-24T08:37:39.734Z,4.03
2023-02-24T08:39:43.782Z,5.93
2023-02-24T08:41:45.827Z,3.80
2023-02-24T08:43:48.771Z,3.80
2023-02-24T08:46:03.906Z,3.97
2023-02-24T08:48:18.355Z,4.27
2023-02-24T08:50:21.783Z,3.97
2023-02-24T08:52:23.899Z,5.00
2023-02-24T08:54:31.938Z,4.70
2023-02-24T08:56:34.618Z,4.23
2023-02-24T08:58:41.135Z,4.67
2023-02-24T09:00:49.244Z,5.20
2023-02-24T09:02:56.170Z,4.03
2023-02-24T09:05:03.670Z,5.37
2023-02-24T09:07:12.090Z,4.40
2023-02-24T09:09:17.375Z,5.40
2023-02-24T09:11:22.841Z,6.43
2023-02-24T09:13:32.879Z,5.80
2023-02-24T09:15:41.404Z,5.27
2023-02-24T09:17:44.776Z,3.93
2023-02-24T09:19:50.750Z,4.33
2023-02-24T09:21:52.786Z,3.97
2023-02-24T09:23:56.022Z,4.13
2023-02-24T09:25:58.059Z,3.90
2023-02-24T09:28:17.077Z,3.43
2023-02-24T09:30:37.208Z,3.83
2023-02-24T09:32:39.521Z,3.60
2023-02-24T09:34:44.140Z,5.13
2023-02-24T09:37:01.429Z,4.33
2023-02-24T09:39:03.455Z,4.70
2023-02-24T09:41:29.935Z,3.97
2023-02-24T09:43:44.137Z,3.97
2023-02-24T09:45:53.795Z,4.50
2023-02-24T09:48:10.498Z,4.60
2023-02-24T09:50:46.887Z,4.40
2023-02-24T09:52:44.315Z,3.60
2023-02-24T09:55:07.771Z,4.40
2023-02-24T09:57:16.930Z,4.90
2023-02-24T09:59:34.704Z,5.17
2023-02-24T10:01:44.341Z,4.40
2023-02-24T10:04:20.085Z,4.40
2023-02-24T10:06:35.370Z,5.07
2023-02-24T10:08:41.307Z,4.60
2023-02-24T10:11:00.891Z,4.67
2023-02-24T10:13:14.086Z,4.47
2023-02-24T10:15:20.128Z,4.67
2023-02-24T10:17:25.123Z,4.50
2023-02-24T10:19:29.319Z,4.20
2023-02-24T10:21:49.531Z,5.60
2023-02-24T10:24:08.543Z,5.43
2023-02-24T10:26:51.371Z,4.47
2023-02-24T10:29:22.571Z,4.40
2023-02-24T10:31:35.709Z,3.90
2023-02-24T10:33:45.144Z,4.20
2023-02-24T10:35:47.501Z,3.97
2023-02-24T10:37:49.483Z,4.87
2023-02-24T10:40:00.274Z,4.13
2023-02-24T10:42:17.580Z,3.40
2023-02-24T10:44:21.136Z,3.80
2023-02-24T10:46:41.234Z,3.20
2023-02-24T10:48:52.772Z,3.00
2023-02-24T10:50:56.502Z,3.33
2023-02-24T10:53:04.438Z,4.33
2023-02-24T10:55:28.098Z,3.23
2023-02-24T10:57:58.154Z,3.20
2023-02-24T11:00:23.869Z,3.33
2023-02-24T11:02:32.714Z,3.60
2023-02-24T11:04:51.278Z,3.77
2023-02-24T11:07:12.140Z,3.07
2023-02-24T11:09:32.268Z,4.03
2023-02-24T11:11:54.835Z,3.03
2023-02-24T11:14:18.037Z,3.03
2023-02-24T11:16:38.853Z,3.80
2023-02-24T11:18:47.862Z,4.03
2023-02-24T11:20:56.386Z,4.47
2023-02-24T11:22:58.400Z,4.10
2023-02-24T11:25:37.217Z,3.03
2023-02-24T11:27:41.599Z,2.60
2023-02-24T11:29:58.732Z,3.67
2023-02-24T11:32:20.466Z,2.70
2023-02-24T11:34:41.342Z,3.33
2023-02-24T11:37:04.722Z,4.03
2023-02-24T11:39:22.688Z,6.37
2023-02-24T11:41:26.262Z,3.47
2023-02-24T11:43:30.148Z,2.70
2023-02-24T11:45:42.343Z,3.47
2023-02-24T11:47:54.555Z,3.20
2023-02-24T11:50:24.529Z,3.33
2023-02-24T11:52:30.827Z,2.90
2023-02-24T11:54:38.682Z,3.80
2023-02-24T11:56:44.094Z,3.23
2023-02-24T11:59:02.484Z,3.70
2023-02-24T12:01:14.412Z,3.20
2023-02-24T12:03:35.680Z,2.90
2023-02-24T12:05:44.889Z,3.20
2023-02-24T12:07:55.742Z,3.27
2023-02-24T12:10:17.660Z,4.60
2023-02-24T12:12:37.737Z,3.73
2023-02-24T12:14:51.550Z,3.40
2023-02-24T12:17:18.099Z,3.77
2023-02-24T12:19:28.520Z,3.77
2023-02-24T12:21:36.724Z,3.60
2023-02-24T12:23:41.936Z,4.00
2023-02-24T12:26:13.444Z,3.97
2023-02-24T12:28:42.253Z,3.83
2023-02-24T12:30:50.009Z,3.23
2023-02-24T12:33:15.388Z,4.20
2023-02-24T12:35:42.354Z,3.50
2023-02-24T12:38:23.651Z,4.10
2023-02-24T12:40:48.036Z,3.60
2023-02-24T12:42:56.993Z,3.97
2023-02-24T12:45:21.475Z,4.20
2023-02-24T12:47:36.282Z,4.60
2023-02-24T12:49:44.145Z,4.67
2023-02-24T12:52:04.662Z,4.03
2023-02-24T12:54:12.348Z,4.27
2023-02-24T12:56:24.314Z,4.77
2023-02-24T12:58:30.972Z,4.27
2023-02-24T13:01:00.834Z,4.77
2023-02-24T13:03:44.193Z,4.00
2023-02-24T13:06:17.432Z,3.90
2023-02-24T13:08:32.874Z,3.20
2023-02-24T13:10:45.168Z,3.93
2023-02-24T13:13:34.826Z,4.13
2023-02-24T13:15:36.795Z,4.50
2023-02-24T13:17:46.840Z,4.27
2023-02-24T13:19:49.812Z,4.50
2023-02-24T13:22:02.213Z,4.43
2023-02-24T13:24:04.466Z,4.87
2023-02-24T13:26:06.546Z,4.50
2023-02-24T13:28:25.242Z,5.10
2023-02-24T13:30:40.639Z,4.83
2023-02-24T13:32:46.238Z,4.23
2023-02-24T13:34:51.680Z,4.33
2023-02-24T13:36:53.804Z,3.93
2023-02-24T13:39:10.627Z,5.00
2023-02-24T13:41:22.128Z,5.10
2023-02-24T13:43:29.094Z,4.70
2023-02-24T13:45:39.888Z,6.03
2023-02-24T13:47:47.823Z,4.90
2023-02-24T13:49:56.025Z,5.50
2023-02-24T13:52:00.999Z,4.67
2023-02-24T13:54:30.741Z,6.03
2023-02-24T13:56:40.633Z,5.23
2023-02-24T13:59:02.079Z,4.97
2023-02-24T14:01:12.675Z,4.67
2023-02-24T14:03:24.710Z,4.70
2023-02-24T14:05:30.303Z,5.40
2023-02-24T14:07:35.052Z,7.10
2023-02-24T14:09:46.742Z,4.20
2023-02-24T14:11:52.844Z,5.67
2023-02-24T14:13:56.620Z,6.87
2023-02-24T14:15:58.950Z,6.40
2023-02-24T14:18:04.007Z,4.43
2023-02-24T14:20:20.683Z,4.53
2023-02-24T14:22:22.881Z,4.10
2023-02-24T14:24:27.578Z,4.13
2023-02-24T14:26:34.694Z,3.10
2023-02-24T14:28:39.502Z,3.90
2023-02-24T14:30:41.749Z,4.37
2023-02-24T14:32:47.723Z,3.70
2023-02-24T14:34:50.548Z,4.07
2023-02-24T14:36:58.468Z,4.13
2023-02-24T14:39:08.814Z,3.87
2023-02-24T14:41:23.034Z,3.77
2023-02-24T14:43:25.198Z,3.43
2023-02-24T14:45:28.699Z,3.80
2023-02-24T14:47:33.438Z,4.80
2023-02-24T14:49:39.725Z,4.10
2023-02-24T14:51:41.858Z,4.10
2023-02-24T14:53:51.244Z,4.27
2023-02-24T14:55:56.031Z,4.77
2023-02-24T14:58:04.134Z,4.27
2023-02-24T15:00:17.504Z,4.50
2023-02-24T15:02:24.417Z,4.67
2023-02-24T15:04:33.666Z,5.13
2023-02-24T15:06:40.999Z,3.70
2023-02-24T15:08:46.945Z,4.73
2023-02-24T15:10:48.962Z,4.30
2023-02-24T15:13:18.699Z,3.97
2023-02-24T15:15:24.288Z,4.93
2023-02-24T15:17:26.677Z,4.43
2023-02-24T15:19:32.772Z,4.47
2023-02-24T15:21:40.446Z,3.70
2023-02-24T15:23:44.487Z,4.00
2023-02-24T15:25:46.927Z,4.23
2023-02-24T15:27:50.392Z,4.00
2023-02-24T15:30:19.934Z,4.57
2023-02-24T15:32:28.024Z,4.10
2023-02-24T15:34:33.024Z,4.33
2023-02-24T15:36:36.304Z,4.90
2023-02-24T15:38:41.240Z,4.07
2023-02-24T15:40:54.135Z,4.57
2023-02-24T15:42:58.401Z,5.27
2023-02-24T15:45:06.543Z,3.83
2023-02-24T15:47:32.654Z,4.00
2023-02-24T15:49:34.796Z,4.50
2023-02-24T15:51:39.987Z,4.30
2023-02-24T15:53:41.970Z,5.13
2023-02-24T15:55:44.668Z,4.50
2023-02-24T15:57:47.896Z,5.23
2023-02-24T15:59:49.902Z,4.37
2023-02-24T16:01:52.406Z,5.23
2023-02-24T16:03:54.453Z,4.80
2023-02-24T16:05:56.519Z,5.87
2023-02-24T16:07:58.481Z,5.17
2023-02-24T16:10:01.435Z,5.10
2023-02-24T16:12:25.923Z,4.83
2023-02-24T16:14:27.929Z,4.50
2023-02-24T16:16:30.100Z,5.10
2023-02-24T16:18:32.693Z,5.60
2023-02-24T16:20:39.770Z,5.00
2023-02-24T16:22:41.911Z,5.83
2023-02-24T16:24:43.945Z,6.40
2023-02-24T16:26:46.131Z,6.17
2023-02-24T16:28:53.893Z,5.37
2023-02-24T16:30:56.241Z,5.50
2023-02-24T16:32:59.623Z,5.43
2023-02-24T16:35:01.719Z,5.73
2023-02-24T16:37:03.741Z,6.03
2023-02-24T16:39:05.703Z,5.40
2023-02-24T16:41:07.743Z,5.50
2023-02-24T16:43:10.372Z,5.23
2023-02-24T16:45:12.373Z,5.33
2023-02-24T16:47:17.880Z,5.53
2023-02-24T16:49:20.817Z,6.73
2023-02-24T16:51:22.910Z,6.30
2023-02-24T16:53:24.966Z,5.90
2023-02-24T16:55:27.105Z,6.60
2023-02-24T16:57:29.131Z,6.60
2023-02-24T16:59:31.159Z,6.17
2023-02-24T17:01:33.863Z,5.63
2023-02-24T17:03:45.809Z,5.77
2023-02-24T17:05:48.004Z,5.47
2023-02-24T17:07:51.921Z,6.07
2023-02-24T17:09:53.917Z,5.60
2023-02-24T17:11:55.917Z,5.40
2023-02-24T17:13:58.043Z,6.00
2023-02-24T17:16:00.273Z,5.83
2023-02-24T17:18:02.512Z,6.23
2023-02-24T17:20:05.056Z,5.27
2023-02-24T17:22:07.263Z,5.40
2023-02-24T17:24:17.681Z,5.40
2023-02-24T17:26:20.229Z,4.40
2023-02-24T17:28:22.973Z,4.67
2023-02-24T17:30:31.085Z,5.30
2023-02-24T17:32:33.575Z,4.60
2023-02-24T17:34:35.878Z,5.97
2023-02-24T17:36:38.057Z,4.57
2023-02-24T17:38:40.274Z,4.30
2023-02-24T17:40:43.404Z,5.43
2023-02-24T17:42:45.603Z,5.60
2023-02-24T17:44:47.729Z,4.50
2023-02-24T17:46:52.176Z,5.63
2023-02-24T17:48:54.524Z,5.30
2023-02-24T17:50:56.658Z,5.97
2023-02-24T17:52:58.770Z,5.60
2023-02-24T17:55:01.053Z,6.13
2023-02-24T17:57:03.254Z,5.90
2023-02-24T17:59:05.403Z,6.00
2023-02-24T18:01:07.838Z,6.60
2023-02-24T18:03:10.210Z,6.00
2023-02-24T18:05:12.427Z,6.40
2023-02-24T18:07:14.561Z,6.20
2023-02-24T18:09:16.840Z,6.60
2023-02-24T18:11:20.123Z,7.17
2023-02-24T18:13:22.266Z,7.13
2023-02-24T18:15:24.423Z,7.30
2023-02-24T18:17:26.605Z,7.67
2023-02-24T18:19:30.472Z,7.57
2023-02-24T18:21:32.654Z,7.83
2023-02-24T18:23:36.269Z,8.27
2023-02-24T18:25:38.507Z,7.10
2023-02-24T18:27:40.697Z,7.47
2023-02-24T18:29:43.003Z,7.37
2023-02-24T18:31:45.584Z,7.93
2023-02-24T18:33:48.457Z,7.77
2023-02-24T18:35:58.482Z,7.73
2023-02-24T18:38:00.802Z,8.27
2023-02-24T18:40:03.364Z,7.57
2023-02-24T18:42:05.640Z,6.70
2023-02-24T18:44:08.139Z,7.07
2023-02-24T18:46:14.676Z,7.07
2023-02-24T18:48:16.879Z,7.50
2023-02-24T18:50:20.641Z,7.57
2023-02-24T18:52:22.869Z,8.27
2023-02-24T18:54:25.005Z,7.90
2023-02-24T18:56:28.419Z,7.90
2023-02-24T18:58:31.082Z,8.93
2023-02-24T19:00:33.176Z,8.83
2023-02-24T19:02:35.317Z,8.53
2023-02-24T19:04:37.414Z,8.83
2023-02-24T19:06:41.607Z,8.80
2023-02-24T19:08:43.840Z,8.80
2023-02-24T19:10:46.004Z,8.63
2023-02-24T19:12:50.635Z,8.37
2023-02-24T19:14:53.077Z,8.07
2023-02-24T19:16:55.271Z,8.97
2023-02-24T19:18:58.557Z,9.17
2023-02-24T19:21:00.861Z,9.20
2023-02-24T19:23:03.063Z,8.00
2023-02-24T19:25:05.603Z,10.30
2023-02-24T19:27:08.699Z,9.77
2023-02-24T19:29:11.193Z,9.37
2023-02-24T19:31:20.353Z,9.37
2023-02-24T19:33:22.987Z,10.03
2023-02-24T19:35:26.241Z,11.50
2023-02-24T19:37:28.396Z,11.27
2023-02-24T19:39:32.319Z,11.83
2023-02-24T19:41:36.939Z,11.07
2023-02-24T19:43:42.092Z,11.30
2023-02-24T19:45:44.359Z,10.90
2023-02-24T19:47:47.029Z,11.30
2023-02-24T19:49:49.206Z,11.20
2023-02-24T19:51:57.984Z,10.17
2023-02-24T19:54:03.256Z,11.13
2023-02-24T19:56:06.488Z,11.57
2023-02-24T19:58:08.650Z,12.30
2023-02-24T20:00:11.612Z,12.27
2023-02-24T20:02:16.610Z,11.77
2023-02-24T20:04:19.035Z,12.40
2023-02-24T20:06:25.730Z,11.60
2023-02-24T20:08:27.976Z,12.87
2023-02-24T20:10:30.176Z,12.47
2023-02-24T20:12:32.405Z,12.67
2023-02-24T20:14:34.517Z,12.63
2023-02-24T20:16:38.111Z,11.40
2023-02-24T20:18:42.004Z,13.67
2023-02-24T20:20:44.683Z,13.33
2023-02-24T20:22:46.861Z,12.27
2023-02-24T20:24:48.999Z,12.50
2023-02-24T20:26:51.357Z,11.13
2023-02-24T20:28:53.688Z,12.37
2023-02-24T20:30:57.270Z,14.33
2023-02-24T20:32:59.744Z,12.20
2023-02-24T20:35:02.005Z,13.47
2023-02-24T20:37:06.505Z,13.40
2023-02-24T20:39:08.654Z,14.37
2023-02-24T20:41:19.470Z,12.90
2023-02-24T20:43:21.695Z,13.10
2023-02-24T20:45:24.036Z,9.87
2023-02-24T20:47:26.133Z,11.90
2023-02-24T20:49:28.433Z,11.07
2023-02-24T20:51:32.466Z,10.50
2023-02-24T20:53:47.843Z,10.50
2023-02-24T20:56:07.337Z,11.10
2023-02-24T20:58:09.512Z,10.90
2023-02-24T21:00:12.309Z,9.77
2023-02-24T21:02:14.527Z,10.13
2023-02-24T21:04:19.176Z,11.00
2023-02-24T21:06:21.492Z,10.70
2023-02-24T21:08:24.170Z,11.70
2023-02-24T21:10:26.497Z,9.80
2023-02-24T21:12:28.668Z,12.13
2023-02-24T21:14:30.886Z,10.37
2023-02-24T21:16:35.365Z,10.60
2023-02-24T21:18:39.122Z,9.70
2023-02-24T21:20:41.273Z,10.60
2023-02-24T21:22:43.513Z,10.20
2023-02-24T21:24:45.911Z,10.10
2023-02-24T21:26:47.980Z,10.60
2023-02-24T21:28:56.843Z,9.67
2023-02-24T21:30:59.705Z,9.33
2023-02-24T21:33:01.938Z,10.70
2023-02-24T21:35:04.356Z,9.10
2023-02-24T21:37:07.404Z,7.90
2023-02-24T21:39:14.496Z,10.70
2023-02-24T21:41:19.515Z,8.73
2023-02-24T21:43:21.801Z,8.50
2023-02-24T21:45:24.015Z,7.73
2023-02-24T21:47:26.240Z,8.80
2023-02-24T21:49:28.459Z,8.67
2023-02-24T21:51:30.667Z,8.50
2023-02-24T21:53:35.443Z,7.83
2023-02-24T21:55:38.922Z,8.83
2023-02-24T21:57:44.825Z,7.83
2023-02-24T21:59:47.033Z,6.70
2023-02-24T22:01:49.405Z,8.07
2023-02-24T22:03:56.127Z,7.70
2023-02-24T22:05:58.300Z,7.20
2023-02-24T22:08:00.406Z,7.57
2023-02-24T22:10:03.423Z,6.87
2023-02-24T22:12:06.134Z,7.60
2023-02-24T22:14:10.050Z,7.47
2023-02-24T22:16:21.842Z,6.60
2023-02-24T22:18:24.259Z,7.00
2023-02-24T22:20:26.343Z,5.80
2023-02-24T22:22:28.434Z,7.57
2023-02-24T22:24:30.561Z,5.77
2023-02-24T22:26:33.083Z,6.33
2023-02-24T22:28:38.268Z,5.80
2023-02-24T22:30:40.504Z,6.13
2023-02-24T22:32:42.778Z,5.53
2023-02-24T22:34:44.961Z,5.77
2023-02-24T22:36:47.111Z,6.50
2023-02-24T22:38:49.303Z,5.37
2023-02-24T22:41:02.508Z,6.77
2023-02-24T22:43:05.125Z,6.40
2023-02-24T22:45:08.553Z,5.83
2023-02-24T22:47:10.854Z,6.10
2023-02-24T22:49:13.278Z,5.80
2023-02-24T22:51:15.507Z,5.23
2023-02-24T22:53:17.751Z,6.30
2023-02-24T22:55:20.493Z,6.60
2023-02-24T22:57:22.591Z,6.13
2023-02-24T22:59:24.779Z,6.40
2023-02-24T23:01:29.308Z,6.70
2023-02-24T23:03:31.431Z,6.77
2023-02-24T23:05:33.902Z,6.73
2023-02-24T23:07:37.388Z,6.30
2023-02-24T23:09:39.597Z,6.70
2023-02-24T23:11:41.972Z,7.37
2023-02-24T23:13:45.865Z,6.37
2023-02-24T23:15:48.961Z,7.53
2023-02-24T23:17:51.074Z,6.93
2023-02-24T23:19:54.125Z,8.73
2023-02-24T23:21:57.115Z,7.47
2023-02-24T23:24:00.173Z,5.77
2023-02-24T23:26:02.642Z,6.50
2023-02-24T23:28:05.671Z,7.07
2023-02-24T23:30:09.778Z,6.17
2023-02-24T23:32:11.977Z,5.80
2023-02-24T23:34:14.880Z,5.30
2023-02-24T23:36:17.750Z,6.00
2023-02-24T23:38:20.082Z,5.53
2023-02-24T23:40:26.141Z,5.10
2023-02-24T23:42:28.662Z,4.87
2023-02-24T23:44:30.777Z,4.83
2023-02-24T23:46:34.206Z,5.80
2023-02-24T23:48:37.259Z,4.20
2023-02-24T23:50:40.616Z,5.37
2023-02-24T23:52:42.806Z,5.00
2023-02-24T23:54:50.023Z,4.37
2023-02-24T23:56:52.208Z,4.13
2023-02-24T23:58:58.935Z,3.33
